SEBI

Registration No.

INH000000305

Ip Address Lookup

So far visitors:

customizable counter

TRIAL

TRIAL

SEND SMS FOR TRIAL

EQUITY - COMMODITY OR BOTH

TO

 09920033678

AND GET TRIAL

 


Information: COPPER (MCX): LOT SIZE CHANGED TO 2500 from 1000 (from JUL CONTRACT)

SEBI Registration No.: INH000000305 *****

* Commodity: 9500/month * Equity: 6000/month


* Gold Package: 7000 * Gold-Silver Package: 8100
*Crude-NG-Copper-Nickel Package: 6000


To See Past Performance, Click Here

For TRIAL / Registration,

click here

Past Performance >> Equity Tips
 
Search
 
Entry Start Date Entry End Date
Exit Start Date Exit End Date
Scrip Name Contract
Package
 

Packages: Precious Metals - Energy and Base Metals - Profit is calculated on basis of 1 lot per call

Package: Equity calls: Profit is calculated as follows:

1. If the scrip is in F & O then 1 lot is counted otherwise

2. Trade of Rs.1,50,000/- per call is counted.

 
Page: ( 1 2 3 4 5 6 7 8 9 10 11 12 13 14 15 16 17 18 19 20 21 22 23 24 25 26 27 28 29 30 31 32 33 34 35 36 37 38 39 40 41 42 43 44 45 46 47 48 49 50 51 52 53 54 55 56 57 58 59 60 61 62 63 64 65 66 67 68 69 70 71 72 73 74 75 76 77 78 79 80 81 82 83 84 85 86 87 88 89 90 91 92 93 94 95 96 97 98 99 100 101 102 103 104 105 106 107 108 109 110 111 112 ) [Current Page: 56]
Displaying 4126 to 4200   Calls
Entry Date Type Scrip Entry Price (Rs) T1
(Rs)
T2
(Rs)
T3
(Rs)
Stop Loss
(Rs)
Exit Date Exit Rate
(Rs)
Profit
(Rs)
 
25-03-14 Buy BANK NIFTY 12490 12550 12600 12700 12410 25-03-14 12490 0.00 More
25-03-14 Buy Above PNB MARCH 120 CALL 586 590 595 600 582 26-03-14 600 7000.00 More
25-03-14 Buy PNB 666 675 685 695 652 27-03-14 695 14500.00 More
24-03-14 Sell Nifty 6590 6570 6550 6530 6625 24-03-14 6600 -500.00 More
24-03-14 Buy Above ACC 1265 1275 1285 1300 1250 24-03-14 1298 8250.00 More
21-03-14 Buy Above BANK NIFTY 12150 12220 12270 12350 12080 21-03-14 12130 -500.00 More
21-03-14 Sell Below Nifty 6510 6490 6470 6450 6540 21-03-14 6510 0.00 More
20-03-14 Sell Below Nifty 6520 6500 6490 6475 6545 20-03-14 6545 -1250.00 More
20-03-14 Buy Above Nifty 6545 6565 6580 6600 6520 20-03-14 6520 -1250.00 More
20-03-14 Sell BANK NIFTY 12160 12090 12020 11950 12220 20-03-14 12040 3000.00 More
20-03-14 Sell Below 358 353 345 --- 362 20-03-14 348 10000.00 More
20-03-14 Sell Below Tata Power 79 77 75 --- 80.30 24-03-14 80.30 -5382.00 More
19-03-14 Buy Above BANK NIFTY 12250 12300 12350 12400 12180 19-03-14 12310 1500.00 More
19-03-14 Sell Below Nifty 6540 6515 6500 6470 6570 19-03-14 6570 -1500.00 More
19-03-14 Buy Above Nifty 6570 6600 6620 6640 6540 19-03-14 6540 -1500.00 More
19-03-14 Buy Above Crompton Greaves 157 159 161 --- 155 19-03-14 155 -8000.00 More
19-03-14 Buy Above HAVELLS 868 875 885 --- 856 19-03-14 876 4000.00 More
18-03-14 Buy Above BANK NIFTY 12290 12340 12400 12500 12210 18-03-14 12210 -2000.00 More
18-03-14 Buy Above Nifty 6590 6610 6630 6650 6570 18-03-14 6570 -1000.00 More
18-03-14 Sell Below Nifty 6570 6550 6530 6500 6590 18-03-14 6525 2250.00 More
18-03-14 Buy 1266 1275 1285 1295 1250 18-03-14 1250 -8000.00 More
14-03-14 Sell Below BANK NIFTY 12020 11950 11900 11850 12100 14-03-14 11930 2250.00 More
14-03-14 Buy Above BANK NIFTY 12100 12150 12200 12250 12020 14-03-14 12170 1750.00 More
14-03-14 Sell Below Nifty 6480 6460 6440 6410 6500 14-03-14 6500 -1000.00 More
14-03-14 Buy Above Nifty 6505 6525 6550 6570 6480 14-03-14 6550 2250.00 More
14-03-14 Buy HPCL 295 299 302 305 291 14-03-14 291 -8000.00 More
13-03-14 Buy BANK NIFTY 12250 12300 12350 12400 12175 13-03-14 12375 3125.00 More
13-03-14 Buy Above Nifty 6560 6580 6600 6620 6540 13-03-14 6585 1250.00 More
13-03-14 Sell Below Nifty 6540 6520 6500 6480 6560 13-03-14 6505 1750.00 More
13-03-14 Buy ICICI BANK 1235 1255 1265 1275 1210 13-03-14 1247 3000.00 More
12-03-14 Buy SBI 1671 1690 1700 1735 1640 13-03-14 1702 3875.00 More
12-03-14 Buy GRASIM 2820 2850 2875 2900 2780 12-03-14 2780 -5000.00 More
12-03-14 Buy RELIANCE CAPITAL 339 345 350 360 328 13-03-14 342 3000.00 More
12-03-14 Buy DLF 180 185 190 --- 176 13-03-14 179 -2000.00 More
12-03-14 Sell BANK NIFTY 12000 11960 11880 11800 12080 12-03-14 11945 1375.00 More
12-03-14 Sell Below Nifty 6525 6500 6480 6460 6550 12-03-14 6550 -1250.00 More
12-03-14 Buy Above Nifty 6550 6570 6590 6610 6525 12-03-14 6575 1250.00 More
12-03-14 Sell Below JSWSteel 938 925 910 --- 955 12-03-14 955 -8500.00 More
12-03-14 Sell Below LICHSGFIN 230 225 220 --- 235 13-03-14 235 -10000.00 More
11-03-14 Sell TCS 2150 2125 2100 --- 2175 12-03-14 2175 -3125.00 More
11-03-14 Buy BANK NIFTY 12325 12400 12450 12500 12250 11-03-14 12250 -1875.00 More
11-03-14 Buy Nifty 6575 6595 6610 6630 6550 11-03-14 6550 -1250.00 More
11-03-14 Sell Below Nifty 6550 6530 6510 6490 6575 11-03-14 6575 -1250.00 More
11-03-14 Buy BPCL 422 427 432 435 416 11-03-14 416 -6000.00 More
11-03-14 Buy Above CENTURY 347 352 355 360 342 11-03-14 342 -5000.00 More
10-03-14 Sell Below BANK NIFTY 12070 12000 11950 11900 12150 10-03-14 11960 2750.00 More
10-03-14 Buy Above Nifty 6575 6600 6620 6640 6550 10-03-14 6590 750.00 More
10-03-14 Sell Below Nifty 6550 6530 6510 6490 6575 10-03-14 6530 1000.00 More
10-03-14 Buy Above SBI 1675 1690 1700 1720 1640 11-03-14 1720 5625.00 More
05-03-14 Buy Above BANK NIFTY 11030 11100 11150 11200 10950 05-03-14 11145 2875.00 More
05-03-14 Sell Below BANK NIFTY 10950 10890 10820 10750 11030 05-03-14 10890 1500.00 More
05-03-14 Buy Above Nifty 6345 6365 6380 6400 6320 05-03-14 6360 750.00 More
05-03-14 Sell Below Nifty 6320 6300 6280 6260 6345 05-03-14 6345 -1250.00 More
05-03-14 Buy AXIS BANK 1305 1315 1325 1335 1288 05-03-14 1288 -4250.00 More
05-03-14 Buy 1125 1135 1145 1155 1115 05-03-14 1134 4500.00 More
04-03-14 Buy BANK NIFTY 10715 10780 10820 10900 10650 04-03-14 10900 4625.00 More
04-03-14 Buy Above Nifty 6260 6280 6300 6320 6235 04-03-14 6320 3000.00 More
04-03-14 Buy TITAN 253.50 256 260 --- 249 04-03-14 259 5500.00 More
04-03-14 Buy ADANI ENT 267 272 275 280 263 05-03-14 272 10000.00 More
03-03-14 Sell BANK NIFTY 10710 10600 10550 10450 10780 03-03-14 10780 -1750.00 More
03-03-14 Buy Above BANK NIFTY 10780 10850 10900 10950 10710 03-03-14 10860 2000.00 More
03-03-14 Sell Below Nifty 6260 6240 6220 6200 6285 03-03-14 6230 1500.00 More
03-03-14 Buy Above Nifty 6285 6305 6325 6350 6260 03-03-14 6260 -1250.00 More
03-03-14 Buy Above VOLTAS 134 136 138 140 132 04-03-14 140 24000.00 More
03-03-14 Buy Above CESC 488 495 500 505 480 03-03-14 496.80 8800.00 More
28-02-14 Buy Above Nifty 6280 6300 6320 6340 6260 28-02-14 6295 750.00 More
28-02-14 Buy BANK NIFTY 10775 10850 10900 10950 10710 28-02-14 10775 0.00 More
28-02-14 Buy SIEMENS 615 625 630 640 600 05-03-14 640 12500.00 More
28-02-14 Sell Below TATA STEEL 348 345 340 --- 351.50 28-02-14 351.50 -3500.00 More
26-02-14 Buy Above BANK NIFTY 10730 10780 10820 10900 10660 26-02-14 10730 0.00 More
26-02-14 Buy Above Nifty 6220 6240 6260 6280 6200 26-02-14 6240 1000.00 More
25-02-14 Sell BANK NIFTY 10635 10580 10530 10450 10700 25-02-14 10700 -1625.00 More
25-02-14 Buy BANK NIFTY 10760 10810 10880 10950 10680 25-02-14 10680 -2000.00 More
25-02-14 Buy Above Nifty 6220 6240 6260 6280 6200 25-02-14 6200 -1000.00 More
25-02-14 Sell Below Nifty 6200 6180 6160 6140 6220 25-02-14 6180 1000.00 More
Page wise profit 68043.00 Rs
Profit 26725375.50 Rs
TRIAL

TRIAL

SEND SMS FOR TRIAL

EQUITY - COMMODITY OR BOTH

TO

 09920033678

AND GET TRIAL